• Join FlightAware (Why Join?)
  • Login
  • US Flag 
07:37AM EDT


 

Airport Tracker/Info


-or-


 

Live Flight TrackerFlight Track Log ✈ RPA4886 ✈ 08-May-2013 ✈ KIAD - KALB

Flight Track Log - Related Links

Times and Time Zones

All times are in EDT time to prevent confusion due to time zone crossing. See the RPA4886 flight status page for this flight to view local times or setup timezone preferences in your user account.

Time Position Orientation Groundspeed Altitude Reporting Facility
EDT Latitude Longitude Course Direction KTS MPH feet Rate Location/Type
07:24PM 38.9667 -77.5667 North 214 246 3,100  Level Potomac TRACON
07:25PM 39.0167 -77.6000 333° Northwest 246 283 4,700 2,040 Climbing Potomac TRACON
07:26PM 39.0833 -77.5833 11° North 240 276 7,100 2,160 Climbing Potomac TRACON
07:29PM 39.2331 -77.5450 11° North 248 285 12,300 1,800 Climbing Washington Center
07:30PM 39.7914 -77.4500 North  Level FlightAware Approximate
07:30PM 39.3042 -77.5281 10° North 248 285 13,600  Level Washington Center
07:31PM 39.3794 -77.5114 10° North 262 302 14,600 1,080 Climbing Washington Center
07:32PM 39.4633 -77.4947 North 280 322 15,800 1,320 Climbing Washington Center
07:33PM 39.6111 -77.4600 10° North 296 341 18,400 1,320 Climbing New York Center
07:34PM 39.6906 -77.4539 North 296 341 19,500 1,020 Climbing New York Center
07:35PM 39.7742 -77.4539 360° North 296 341 20,500 720 Climbing New York Center
07:36PM 39.8594 -77.4539 360° North 296 341 21,000 240 Climbing New York Center
07:37PM 39.9514 -77.4517 North 311 358 21,000  Level New York Center
07:38PM 40.0497 -77.4475 North 332 382 21,000  Level New York Center
07:39PM 40.1478 -77.4461 North 346 398 21,000  Level New York Center
07:40PM 40.2400 -77.4006 21° North 348 400 21,000  Level New York Center
07:41PM 40.3244 -77.3433 27° Northeast 343 395 21,000 420 Level New York Center
07:42PM 40.4175 -77.2839 26° Northeast 346 398 21,900 900 Climbing New York Center
07:43PM 40.4975 -77.2314 27° Northeast 334 384 22,900 540 Climbing New York Center
07:44PM 40.5772 -77.1817 25° Northeast 318 366 23,000  Climbing New York Center
07:45PM 40.6614 -77.1292 25° Northeast 318 366 23,000  Level New York Center
07:46PM 40.7436 -77.0739 27° Northeast 318 366 23,000  Level New York Center
07:47PM 40.8297 -77.0186 26° Northeast 328 377 23,000  Level New York Center
07:48PM 40.9183 -76.9608 26° Northeast 333 383 23,000  Level New York Center
07:49PM 41.0025 -76.9053 26° Northeast 338 389 23,000  Level New York Center
07:50PM 41.0908 -76.8500 25° Northeast 338 389 23,000  Level New York Center
07:51PM 41.1792 -76.7889 28° Northeast 338 389 23,000  Level New York Center
07:52PM 41.2633 -76.7356 25° Northeast 338 389 23,000  Level New York Center
07:53PM 41.3494 -76.6797 26° Northeast 338 389 23,000  Level New York Center
07:54PM 41.4314 -76.6233 27° Northeast 338 389 23,000  Level New York Center
07:55PM 41.5086 -76.5744 25° Northeast 323 372 23,000  Level New York Center
07:56PM 41.5711 -76.5328 27° Northeast 317 365 23,000  Level New York Center
07:58PM 41.6675 -76.3589 53° Northeast 314 361 23,000  Level Boston Center
07:59PM 41.6922 -76.2519 73° East 309 356 23,000  Level Boston Center
08:00PM 41.6961 -76.1353 87° East 296 341 23,000  Level Boston Center
08:01PM 41.7347 -76.0347 63° Northeast 295 339 23,000  Level Boston Center
08:02PM 41.7839 -75.9317 57° Northeast 300 345 23,000  Level Boston Center
08:03PM 41.8306 -75.8283 59° Northeast 310 357 23,000  Level Boston Center
08:04PM 41.8817 -75.7250 56° Northeast 317 365 23,000  Level Boston Center
08:05PM 41.9306 -75.6161 59° Northeast 324 373 23,000  Level Boston Center
08:06PM 41.9903 -75.4906 57° Northeast 329 379 23,000  Level Boston Center
08:07PM 42.0392 -75.3839 58° Northeast 329 379 23,000  Level Boston Center
08:08PM 42.0878 -75.2769 58° Northeast 329 379 23,000 -540 Level Boston Center
08:09PM 42.1361 -75.1728 58° Northeast 329 379 22,000 -1,860 Descending Boston Center
08:10PM 42.1822 -75.0711 59° Northeast 323 372 19,300 -2,820 Descending Boston Center
08:11PM 42.2328 -74.9639 57° Northeast 323 372 16,400 -3,000 Descending Boston Center
08:12PM 42.2808 -74.8564 59° Northeast 334 384 13,700 -2,640 Descending Boston Center
08:13PM 42.3247 -74.7542 60° Northeast 322 371 11,500 -1,320 Descending Boston Center
08:14PM 42.3683 -74.6544 59° Northeast 306 352 11,100 -300 Descending Boston Center
08:15PM 42.4161 -74.5550 57° Northeast 321 369 11,000 -120 Descending Boston Center
08:16PM 42.4597 -74.4550 59° Northeast 314 361 10,900 -780 Descending Boston Center
08:17PM 42.5258 -74.3672 44° Northeast 293 337 9,500 -1,440 Descending Boston Center
08:18PM 42.5811 -74.2928 45° Northeast 289 333 8,000 -1,680 Descending Boston Center
08:19PM 42.6261 -74.2264 47° Northeast 271 312 6,300 -1,860 Descending Boston Center
08:20PM 42.6878 -74.1406 46° Northeast 267 307 4,200 -1,320 Descending Boston Center
08:21PM 42.7344 -74.0794 44° Northeast 252 290 3,600 -360 Descending Boston Center
08:22PM 42.7856 -74.0103 45° Northeast 247 284 3,500 -60 Descending Boston Center
08:23PM 42.8344 -73.9492 43° Northeast 252 290 3,500 -540 Level Boston Center
08:24PM 42.8667 -73.8678 62° Northeast 214 246 2,500 -1,020 Descending Boston Center